Time;durP1;ratioP1;P1;durP2;ratioP2;P2;SDS_P1;SDS_P2;PMS_P1;PMS_P2;Temp;Humidity;BMP_temperature;BMP_pressure;BME280_temperature;BME280_humidity;BME280_pressure;Samples;Min_cycle;Max_cycle;Signal;HPM_P1;HPM_P2
2021/11/18 00:00:26;;;;;;;6.50;5.87;;;8.50;92.30;;;;;;5097103;28;20433;-45
2021/11/18 00:02:51;;;;;;;6.43;5.83;;;8.50;92.30;;;;;;5097018;28;20441;-46
2021/11/18 00:05:19;;;;;;;6.13;5.63;;;8.50;92.30;;;;;;5097326;28;20437;-45
2021/11/18 00:07:46;;;;;;;6.00;5.40;;;8.50;92.30;;;;;;5097312;28;20332;-45
2021/11/18 00:10:18;;;;;;;5.93;5.40;;;8.50;92.30;;;;;;5094907;28;20587;-45
2021/11/18 00:12:45;;;;;;;6.20;5.60;;;8.50;92.30;;;;;;5077147;28;20422;-46
2021/11/18 00:15:12;;;;;;;6.30;5.70;;;8.50;92.30;;;;;;5077534;28;20437;-44
2021/11/18 00:17:38;;;;;;;6.03;5.43;;;8.40;92.20;;;;;;5076306;28;20875;-45
2021/11/18 00:20:09;;;;;;;6.17;5.57;;;8.40;92.30;;;;;;5077603;28;20423;-46
2021/11/18 00:22:35;;;;;;;5.70;5.20;;;8.40;92.30;;;;;;5077711;28;20434;-46
2021/11/18 00:25:01;;;;;;;5.60;5.03;;;8.50;92.40;;;;;;5077596;28;20479;-46
2021/11/18 00:27:27;;;;;;;6.57;5.90;;;8.40;92.30;;;;;;5077034;28;20605;-45
2021/11/18 00:29:53;;;;;;;5.93;5.43;;;8.40;92.30;;;;;;5077541;28;20203;-46
2021/11/18 00:32:20;;;;;;;6.30;5.80;;;8.40;92.30;;;;;;5077690;28;20512;-45
2021/11/18 00:34:46;;;;;;;5.90;5.30;;;8.40;92.40;;;;;;5077485;28;20826;-46
2021/11/18 00:37:11;;;;;;;6.07;5.57;;;8.40;92.40;;;;;;5076649;28;20196;-46
2021/11/18 00:39:37;;;;;;;6.40;5.80;;;8.40;92.30;;;;;;5075892;28;20211;-46
2021/11/18 00:42:03;;;;;;;7.67;6.87;;;8.40;92.40;;;;;;5075107;28;20250;-45
2021/11/18 00:44:29;;;;;;;6.03;5.43;;;8.40;92.50;;;;;;5075884;28;20191;-45
2021/11/18 00:46:54;;;;;;;6.90;5.87;;;8.40;92.60;;;;;;5075086;28;20441;-45
2021/11/18 00:49:21;;;;;;;7.10;5.63;;;8.40;92.60;;;;;;5076232;28;20176;-45
2021/11/18 00:51:49;;;;;;;6.70;5.90;;;8.40;92.60;;;;;;5076209;28;20275;-45
2021/11/18 00:54:15;;;;;;;5.60;5.00;;;8.40;92.70;;;;;;5075976;28;20699;-45
2021/11/18 00:56:41;;;;;;;5.53;5.03;;;8.40;92.70;;;;;;5077484;28;20489;-45
2021/11/18 00:59:07;;;;;;;5.77;5.27;;;8.40;92.70;;;;;;5077610;28;20458;-44
2021/11/18 01:01:43;;;;;;;6.80;6.17;;;8.30;92.70;;;;;;5076533;28;20431;-47
2021/11/18 01:04:11;;;;;;;5.97;5.37;;;8.30;92.70;;;;;;5076866;28;20411;-45
2021/11/18 01:06:36;;;;;;;6.30;5.70;;;8.30;92.80;;;;;;5077457;28;20767;-45
2021/11/18 01:09:03;;;;;;;6.30;5.60;;;8.30;92.80;;;;;;5077234;28;20458;-45
2021/11/18 01:11:31;;;;;;;6.47;5.87;;;8.30;92.90;;;;;;5077769;28;20220;-45
2021/11/18 01:13:56;;;;;;;6.93;6.23;;;8.30;92.90;;;;;;5077077;28;20434;-45
2021/11/18 01:16:25;;;;;;;6.00;5.40;;;8.30;93.00;;;;;;5081658;28;20439;-45
2021/11/18 01:18:51;;;;;;;6.60;6.00;;;8.30;93.00;;;;;;5081125;28;20232;-45
2021/11/18 01:21:17;;;;;;;5.67;5.17;;;8.30;93.00;;;;;;5089506;28;20864;-45
2021/11/18 01:23:44;;;;;;;6.43;5.70;;;8.20;93.00;;;;;;5091019;28;20177;-45
2021/11/18 01:26:12;;;;;;;5.73;5.23;;;8.20;93.00;;;;;;5091442;28;20453;-45
2021/11/18 01:28:38;;;;;;;5.53;5.03;;;8.20;93.00;;;;;;5088642;28;20474;-45
2021/11/18 01:31:04;;;;;;;6.43;5.80;;;8.20;93.10;;;;;;5090958;28;20482;-45
2021/11/18 01:33:31;;;;;;;5.97;5.03;;;8.20;93.10;;;;;;5090649;28;20852;-45
2021/11/18 01:35:56;;;;;;;5.87;5.20;;;8.20;93.10;;;;;;5088927;28;20812;-45
2021/11/18 01:38:23;;;;;;;6.63;5.13;;;8.20;93.10;;;;;;5090463;28;20423;-45
2021/11/18 01:40:52;;;;;;;6.20;5.60;;;8.20;93.10;;;;;;5089625;28;20452;-45
2021/11/18 01:43:20;;;;;;;6.60;5.67;;;8.20;93.20;;;;;;5088187;28;20434;-44
2021/11/18 01:45:47;;;;;;;6.23;5.63;;;8.20;93.20;;;;;;5089493;28;20414;-44
2021/11/18 01:48:13;;;;;;;6.50;5.77;;;8.20;93.20;;;;;;5089877;28;20428;-45
2021/11/18 01:50:43;;;;;;;6.23;5.63;;;8.20;93.30;;;;;;5084938;28;20568;-45
2021/11/18 01:53:13;;;;;;;6.10;5.47;;;8.20;93.30;;;;;;5079953;28;20548;-45
2021/11/18 01:55:40;;;;;;;5.43;4.93;;;8.20;93.30;;;;;;5079336;28;20759;-45
2021/11/18 01:58:06;;;;;;;5.73;5.10;;;8.20;93.30;;;;;;5079308;28;20458;-45
2021/11/18 02:00:35;;;;;;;5.13;4.63;;;8.20;93.30;;;;;;5079496;28;20419;-45
2021/11/18 02:03:02;;;;;;;6.70;6.10;;;8.20;93.30;;;;;;5079879;28;20524;-45
2021/11/18 02:05:34;;;;;;;5.67;5.00;;;8.20;93.30;;;;;;5079482;28;20416;-44
2021/11/18 02:08:00;;;;;;;6.10;5.50;;;8.20;93.30;;;;;;5078665;28;20514;-45
2021/11/18 02:10:33;;;;;;;5.87;5.37;;;8.20;93.30;;;;;;5079221;28;20475;-45
2021/11/18 02:13:01;;;;;;;6.67;5.67;;;8.30;93.30;;;;;;5080903;28;20456;-45
2021/11/18 02:15:31;;;;;;;5.57;5.07;;;8.30;93.40;;;;;;5079961;28;20418;-45
2021/11/18 02:17:58;;;;;;;5.90;4.73;;;8.30;93.40;;;;;;5080088;28;20426;-45
2021/11/18 02:20:30;;;;;;;5.43;4.83;;;8.30;93.40;;;;;;5080195;28;20462;-45
2021/11/18 02:22:56;;;;;;;6.87;6.03;;;8.30;93.40;;;;;;5080398;28;20564;-45
2021/11/18 02:25:31;;;;;;;5.87;5.33;;;8.30;93.40;;;;;;5078944;28;20514;-46
2021/11/18 02:27:58;;;;;;;5.80;5.20;;;8.30;93.40;;;;;;5079941;28;20478;-46
2021/11/18 02:30:26;;;;;;;6.27;4.50;;;8.30;93.40;;;;;;5080473;28;20479;-46
2021/11/18 02:32:54;;;;;;;6.40;4.93;;;8.30;93.80;;;;;;5080117;28;20849;-46
2021/11/18 02:35:26;;;;;;;5.93;5.30;;;8.30;93.40;;;;;;5079779;28;20434;-46
2021/11/18 02:37:53;;;;;;;6.53;5.77;;;8.30;93.40;;;;;;5079436;28;20423;-46
2021/11/18 02:41:06;;;;;;;5.60;5.00;;;8.30;93.40;;;;;;5080125;28;20902;-46
2021/11/18 02:43:32;;;;;;;5.67;5.00;;;8.30;93.40;;;;;;5079559;28;20469;-46
2021/11/18 02:45:58;;;;;;;6.10;5.10;;;8.40;93.50;;;;;;5080205;28;20454;-44
2021/11/18 02:48:23;;;;;;;6.10;5.30;;;8.30;93.40;;;;;;5079672;28;20210;-44
2021/11/18 02:50:53;;;;;;;5.70;5.17;;;8.40;93.50;;;;;;5079831;28;20211;-44
2021/11/18 02:53:19;;;;;;;5.40;4.90;;;8.40;93.50;;;;;;5079245;28;20190;-45
2021/11/18 02:55:47;;;;;;;7.03;5.37;;;8.40;93.50;;;;;;5079972;28;20485;-45
2021/11/18 02:58:13;;;;;;;7.47;5.60;;;8.40;93.50;;;;;;5079638;28;20484;-44
2021/11/18 03:00:55;;;;;;;6.40;5.80;;;8.40;93.50;;;;;;5079479;28;20819;-45
2021/11/18 03:03:21;;;;;;;5.40;4.90;;;8.40;93.60;;;;;;5078003;28;20442;-45
2021/11/18 03:05:48;;;;;;;6.90;4.80;;;8.40;93.60;;;;;;5079344;28;20430;-44
2021/11/18 03:08:16;;;;;;;5.97;5.37;;;8.40;93.60;;;;;;5079476;28;20438;-45
2021/11/18 03:10:42;;;;;;;6.27;5.13;;;8.40;93.60;;;;;;5079288;28;20480;-45
2021/11/18 03:13:08;;;;;;;6.70;6.10;;;8.40;93.50;;;;;;5079322;28;20424;-45
2021/11/18 03:15:34;;;;;;;6.53;5.70;;;8.40;93.60;;;;;;5079623;28;20174;-45
2021/11/18 03:17:59;;;;;;;6.20;5.63;;;8.40;93.60;;;;;;5079170;28;20748;-45
2021/11/18 03:20:28;;;;;;;6.40;5.80;;;8.40;93.60;;;;;;5078590;28;20479;-45
2021/11/18 03:22:54;;;;;;;6.70;5.30;;;8.40;93.70;;;;;;5079172;28;20212;-45
2021/11/18 03:25:24;;;;;;;6.27;5.70;;;8.40;93.60;;;;;;5079329;28;20832;-45
2021/11/18 03:27:50;;;;;;;6.73;6.13;;;8.40;93.60;;;;;;5078547;28;20474;-45
2021/11/18 03:30:22;;;;;;;6.60;6.00;;;8.40;93.60;;;;;;5078711;28;20801;-45
2021/11/18 03:32:49;;;;;;;5.90;5.27;;;8.40;93.70;;;;;;5078803;28;20529;-45
2021/11/18 03:35:15;;;;;;;6.67;6.00;;;8.40;93.70;;;;;;5079219;28;20890;-45
2021/11/18 03:37:40;;;;;;;7.13;5.57;;;8.40;93.70;;;;;;5078298;28;20432;-45
2021/11/18 03:40:07;;;;;;;6.33;5.30;;;8.40;93.70;;;;;;5078664;28;20463;-45
2021/11/18 03:42:32;;;;;;;6.10;5.50;;;8.40;93.70;;;;;;5079090;28;20556;-45
2021/11/18 03:44:58;;;;;;;6.07;5.47;;;8.40;93.70;;;;;;5078744;28;20479;-45
2021/11/18 03:47:24;;;;;;;7.50;6.17;;;8.40;93.70;;;;;;5078265;28;20182;-45
2021/11/18 03:49:50;;;;;;;6.27;5.67;;;8.40;93.70;;;;;;5077709;28;20176;-45
2021/11/18 03:52:16;;;;;;;5.80;5.20;;;8.40;93.70;;;;;;5078542;28;20250;-45
2021/11/18 03:54:44;;;;;;;5.80;5.27;;;8.40;93.70;;;;;;5078650;28;20188;-45
2021/11/18 03:57:09;;;;;;;5.90;5.23;;;8.40;93.70;;;;;;5077842;28;20730;-45
2021/11/18 03:59:37;;;;;;;6.70;6.00;;;8.40;93.70;;;;;;5078007;28;20459;-45
2021/11/18 04:02:03;;;;;;;6.37;5.73;;;8.40;93.70;;;;;;5078367;28;20173;-45
2021/11/18 04:04:36;;;;;;;5.70;5.10;;;8.40;93.70;;;;;;5078768;28;20459;-45
2021/11/18 04:07:02;;;;;;;5.20;4.60;;;8.40;93.80;;;;;;5078111;28;20420;-45
2021/11/18 04:09:28;;;;;;;6.63;5.50;;;8.40;93.80;;;;;;5061072;28;20420;-45
2021/11/18 04:11:59;;;;;;;6.43;5.43;;;8.40;93.80;;;;;;5078208;28;20517;-45
2021/11/18 04:14:26;;;;;;;6.10;5.50;;;8.40;93.80;;;;;;5077872;28;20694;-46
2021/11/18 04:16:52;;;;;;;8.30;6.43;;;8.30;93.80;;;;;;5077842;28;20413;-45
2021/11/18 04:19:17;;;;;;;7.63;6.57;;;8.30;93.80;;;;;;5078345;28;20439;-45
2021/11/18 04:21:44;;;;;;;6.33;5.67;;;8.30;93.80;;;;;;5078099;28;20207;-45
2021/11/18 04:24:15;;;;;;;6.10;5.50;;;8.30;93.80;;;;;;5077571;28;20571;-45
2021/11/18 04:26:42;;;;;;;5.73;5.20;;;8.30;93.80;;;;;;5077891;28;20688;-45
2021/11/18 04:29:09;;;;;;;6.20;5.23;;;8.30;93.90;;;;;;5077625;28;20483;-45
2021/11/18 04:31:34;;;;;;;6.30;5.70;;;8.30;93.90;;;;;;5077378;28;20455;-45
2021/11/18 04:34:00;;;;;;;6.10;5.50;;;8.30;93.90;;;;;;5077176;28;20453;-45
2021/11/18 04:36:27;;;;;;;6.07;5.57;;;8.30;93.90;;;;;;5077477;28;20178;-45
2021/11/18 04:38:53;;;;;;;7.63;6.73;;;8.20;93.90;;;;;;5077969;28;20514;-45
2021/11/18 04:41:21;;;;;;;6.13;5.53;;;8.30;94.00;;;;;;5076635;28;20710;-44
2021/11/18 04:43:47;;;;;;;6.60;6.00;;;8.30;94.00;;;;;;5076179;28;20445;-44
2021/11/18 04:46:13;;;;;;;6.93;5.80;;;8.30;94.10;;;;;;5076873;28;20709;-45
2021/11/18 04:48:40;;;;;;;6.57;5.87;;;8.30;94.00;;;;;;5075999;28;20441;-45
2021/11/18 04:51:08;;;;;;;5.90;5.30;;;8.30;94.10;;;;;;5077068;28;20462;-45
2021/11/18 04:53:35;;;;;;;8.03;6.27;;;8.30;94.10;;;;;;5077380;28;20525;-45
2021/11/18 04:56:01;;;;;;;6.27;5.67;;;8.20;94.10;;;;;;5077700;28;20493;-45
2021/11/18 04:58:26;;;;;;;6.30;5.33;;;8.20;94.10;;;;;;5077407;28;20412;-45
2021/11/18 05:00:55;;;;;;;6.03;5.37;;;8.30;94.10;;;;;;5077081;28;20702;-45
2021/11/18 05:03:23;;;;;;;7.00;5.90;;;8.30;94.10;;;;;;5077165;28;20187;-48
2021/11/18 05:05:49;;;;;;;7.90;5.47;;;8.30;94.10;;;;;;5076551;28;20522;-44
2021/11/18 05:08:15;;;;;;;6.83;5.23;;;8.30;94.10;;;;;;5075554;28;20470;-43
2021/11/18 05:10:43;;;;;;;6.90;6.20;;;8.40;94.10;;;;;;5075268;28;20521;-42
2021/11/18 05:13:09;;;;;;;7.60;5.93;;;8.40;94.00;;;;;;5074815;28;20684;-42
2021/11/18 05:15:38;;;;;;;6.67;6.07;;;8.40;93.90;;;;;;5074220;28;20431;-44
2021/11/18 05:18:04;;;;;;;8.17;6.17;;;8.50;93.90;;;;;;5074781;28;20423;-43
2021/11/18 05:20:32;;;;;;;7.30;6.60;;;8.50;93.90;;;;;;5075702;28;20889;-43
2021/11/18 05:22:58;;;;;;;5.97;5.37;;;8.50;93.80;;;;;;5074604;28;20414;-42
2021/11/18 05:25:26;;;;;;;7.07;6.20;;;8.50;93.80;;;;;;5077016;28;20439;-44
2021/11/18 05:27:52;;;;;;;5.97;5.40;;;8.50;93.70;;;;;;5076016;28;20478;-43
2021/11/18 05:30:20;;;;;;;7.10;5.97;;;8.50;93.70;;;;;;5076040;28;20459;-44
2021/11/18 05:32:47;;;;;;;6.10;5.50;;;8.50;93.70;;;;;;5076841;28;20420;-43
2021/11/18 05:35:13;;;;;;;8.40;6.63;;;8.50;93.70;;;;;;5076577;28;20756;-44
2021/11/18 05:37:39;;;;;;;6.07;5.47;;;8.50;93.70;;;;;;5076036;28;20735;-42
2021/11/18 05:40:08;;;;;;;6.47;5.87;;;8.50;93.70;;;;;;5075762;28;20729;-44
2021/11/18 05:42:35;;;;;;;6.50;5.90;;;8.60;93.70;;;;;;5076113;28;20840;-42
2021/11/18 05:45:01;;;;;;;6.63;6.00;;;8.60;93.70;;;;;;5074999;28;20415;-42
2021/11/18 05:47:27;;;;;;;6.70;5.93;;;8.50;93.70;;;;;;5074061;28;20427;-43
2021/11/18 05:49:52;;;;;;;6.43;5.40;;;8.50;93.70;;;;;;5075471;28;21025;-44
2021/11/18 05:52:18;;;;;;;6.53;5.87;;;8.60;94.00;;;;;;5076100;28;20271;-46
2021/11/18 05:54:45;;;;;;;6.27;5.67;;;8.50;93.60;;;;;;5076290;28;20252;-43
2021/11/18 05:57:11;;;;;;;6.67;5.97;;;8.60;93.70;;;;;;5076782;28;20837;-43
2021/11/18 05:59:37;;;;;;;7.17;6.10;;;8.60;93.80;;;;;;5076002;28;20806;-42
2021/11/18 06:02:02;;;;;;;6.43;5.60;;;8.50;93.70;;;;;;5079597;28;20181;-44
2021/11/18 06:04:28;;;;;;;6.80;5.97;;;8.50;93.70;;;;;;5080191;28;20181;-44
2021/11/18 06:06:54;;;;;;;7.10;6.40;;;8.50;93.70;;;;;;5079928;28;20185;-46
2021/11/18 06:09:19;;;;;;;6.37;5.77;;;8.50;93.80;;;;;;5079638;28;20181;-43
2021/11/18 06:11:45;;;;;;;8.13;6.53;;;8.50;93.80;;;;;;5093900;28;20284;-43
2021/11/18 06:14:11;;;;;;;7.73;6.63;;;8.50;93.90;;;;;;5098634;28;20168;-42
2021/11/18 06:16:37;;;;;;;7.00;6.30;;;8.50;93.90;;;;;;5097882;28;20713;-42
2021/11/18 06:19:04;;;;;;;6.83;6.13;;;8.50;93.90;;;;;;5097305;28;20480;-42
2021/11/18 06:21:33;;;;;;;7.27;6.53;;;8.50;93.90;;;;;;5096663;28;20262;-43
2021/11/18 06:24:01;;;;;;;7.83;6.40;;;8.50;93.90;;;;;;5094856;28;20422;-43
2021/11/18 06:26:27;;;;;;;6.93;6.07;;;8.50;93.90;;;;;;5095627;28;20433;-42
2021/11/18 06:28:57;;;;;;;8.00;7.20;;;8.50;93.90;;;;;;5095895;28;20470;-43
2021/11/18 06:31:23;;;;;;;7.10;6.23;;;8.50;93.90;;;;;;5097267;28;20551;-43
2021/11/18 06:33:50;;;;;;;7.90;6.87;;;8.50;93.90;;;;;;5098168;28;20900;-42
2021/11/18 06:36:16;;;;;;;7.10;6.40;;;8.50;93.90;;;;;;5097637;28;20422;-42
2021/11/18 06:38:45;;;;;;;7.47;6.70;;;8.50;94.00;;;;;;5098902;28;20438;-43
2021/11/18 06:41:12;;;;;;;8.23;6.63;;;8.50;94.00;;;;;;5097630;28;20434;-43
2021/11/18 06:43:38;;;;;;;9.33;7.73;;;8.50;94.40;;;;;;5096983;28;20410;-42
2021/11/18 06:46:05;;;;;;;8.40;7.20;;;8.40;94.10;;;;;;5095541;28;20533;-44
2021/11/18 06:48:30;;;;;;;7.67;6.83;;;8.50;94.20;;;;;;5096294;28;20426;-42
2021/11/18 06:51:02;;;;;;;7.03;6.33;;;8.50;94.40;;;;;;5095508;28;21042;-43
2021/11/18 06:53:30;;;;;;;8.63;6.77;;;8.50;94.30;;;;;;5096159;28;20563;-45
2021/11/18 06:55:56;;;;;;;9.40;6.23;;;8.50;94.20;;;;;;5096628;28;20411;-45
2021/11/18 06:58:22;;;;;;;8.17;6.70;;;8.50;94.20;;;;;;5096199;28;20490;-44
2021/11/18 07:00:47;;;;;;;8.17;7.03;;;8.50;94.20;;;;;;5097125;28;20172;-42
2021/11/18 07:03:13;;;;;;;8.00;7.07;;;8.50;94.10;;;;;;5097445;28;20180;-44
2021/11/18 07:05:40;;;;;;;9.17;7.53;;;8.50;94.20;;;;;;5096210;28;20181;-44
2021/11/18 07:08:07;;;;;;;7.90;7.10;;;8.50;94.10;;;;;;5095058;28;20454;-44
2021/11/18 07:10:34;;;;;;;8.00;7.27;;;8.50;94.50;;;;;;5096909;28;20460;-45
2021/11/18 07:12:59;;;;;;;9.17;7.63;;;8.50;94.20;;;;;;5096335;28;20408;-44
2021/11/18 07:15:26;;;;;;;9.37;7.57;;;8.50;94.30;;;;;;5096282;28;20406;-44
2021/11/18 07:17:56;;;;;;;9.97;7.17;;;8.60;94.30;;;;;;5096671;28;20168;-43
2021/11/18 07:20:22;;;;;;;9.77;7.87;;;8.60;94.30;;;;;;5097153;28;20411;-41
2021/11/18 07:22:48;;;;;;;8.83;7.37;;;8.60;94.30;;;;;;5095923;28;20423;-42
2021/11/18 07:25:17;;;;;;;8.23;7.47;;;8.60;94.30;;;;;;5096859;28;20411;-42
2021/11/18 07:27:43;;;;;;;8.97;7.87;;;8.70;94.60;;;;;;5096183;28;20580;-42
2021/11/18 07:30:09;;;;;;;8.53;7.07;;;8.70;94.30;;;;;;5096581;28;20459;-43
2021/11/18 07:32:35;;;;;;;11.57;7.40;;;8.70;94.20;;;;;;5098039;28;20414;-43
2021/11/18 07:35:01;;;;;;;7.70;6.87;;;8.70;94.20;;;;;;5096681;28;20430;-44
2021/11/18 07:37:27;;;;;;;8.43;7.50;;;8.80;94.20;;;;;;5097831;28;20172;-43
2021/11/18 07:39:53;;;;;;;8.97;8.07;;;8.80;94.20;;;;;;5098009;28;20425;-43
2021/11/18 07:42:19;;;;;;;8.07;7.30;;;8.90;94.20;;;;;;5097359;28;20421;-44
2021/11/18 07:44:44;;;;;;;10.80;7.93;;;8.90;94.10;;;;;;5095115;28;20230;-42
2021/11/18 07:47:10;;;;;;;10.37;8.47;;;8.90;94.10;;;;;;5095679;28;20189;-43
2021/11/18 07:49:36;;;;;;;7.77;7.07;;;9.00;94.10;;;;;;5095569;28;20262;-43
2021/11/18 07:52:02;;;;;;;8.80;7.53;;;9.00;94.00;;;;;;5095515;28;20204;-43
2021/11/18 07:54:28;;;;;;;7.97;7.17;;;9.00;94.00;;;;;;5096708;28;20177;-44
2021/11/18 07:56:53;;;;;;;9.20;7.93;;;9.10;94.00;;;;;;5096823;28;20697;-43
2021/11/18 07:59:19;;;;;;;9.40;8.00;;;9.10;93.90;;;;;;5095794;28;20525;-42
2021/11/18 08:01:45;;;;;;;8.30;7.33;;;9.10;93.90;;;;;;5097009;28;20200;-43
2021/11/18 08:04:11;;;;;;;8.73;7.60;;;9.20;93.90;;;;;;5096166;28;20435;-42
2021/11/18 08:06:38;;;;;;;8.47;7.50;;;9.20;93.80;;;;;;5097582;28;20204;-44
2021/11/18 08:09:04;;;;;;;9.33;8.20;;;9.20;93.80;;;;;;5096056;28;20431;-43
2021/11/18 08:11:36;;;;;;;8.93;8.03;;;9.30;93.80;;;;;;5097243;28;20464;-44
2021/11/18 08:14:04;;;;;;;10.67;8.80;;;9.30;93.70;;;;;;5095263;28;20442;-43
2021/11/18 08:16:30;;;;;;;11.17;9.43;;;9.40;93.70;;;;;;5077789;28;20415;-43
2021/11/18 08:18:56;;;;;;;9.53;8.50;;;9.30;93.60;;;;;;5096747;28;20896;-43
2021/11/18 08:21:23;;;;;;;12.97;8.80;;;9.40;93.90;;;;;;5096706;28;20447;-43
2021/11/18 08:23:49;;;;;;;8.93;8.03;;;9.40;93.50;;;;;;5096261;28;20441;-44
2021/11/18 08:26:17;;;;;;;11.87;8.77;;;9.40;93.50;;;;;;5097532;28;20467;-45
2021/11/18 08:28:43;;;;;;;10.03;8.90;;;9.50;93.50;;;;;;5096776;28;20479;-43
2021/11/18 08:31:11;;;;;;;15.33;10.53;;;9.50;93.50;;;;;;5096973;28;20565;-45
2021/11/18 08:33:37;;;;;;;12.50;10.13;;;9.50;93.50;;;;;;5097577;28;20446;-44
2021/11/18 08:36:03;;;;;;;12.10;9.80;;;9.50;93.40;;;;;;5096325;28;20454;-44
2021/11/18 08:38:29;;;;;;;18.00;12.03;;;9.50;93.40;;;;;;5095969;28;20504;-43
2021/11/18 08:41:02;;;;;;;14.10;12.60;;;9.50;93.50;;;;;;5095173;28;20502;-43
2021/11/18 08:43:28;;;;;;;16.70;11.90;;;9.60;93.60;;;;;;5095897;28;20446;-42
2021/11/18 08:45:54;;;;;;;13.33;11.20;;;9.60;93.70;;;;;;5095422;28;20442;-42
2021/11/18 08:48:20;;;;;;;14.23;12.00;;;9.60;93.70;;;;;;5097388;28;20418;-46
2021/11/18 08:50:48;;;;;;;16.50;13.03;;;9.60;93.60;;;;;;5097247;28;20504;-45
2021/11/18 08:53:15;;;;;;;16.63;13.07;;;9.60;93.90;;;;;;5097066;28;20406;-45
2021/11/18 08:55:41;;;;;;;17.40;12.43;;;9.70;93.60;;;;;;5096102;28;20428;-44
2021/11/18 09:01:59;;;;;;;14.00;10.67;;;9.80;93.70;;;;;;5097616;28;20475;-42
2021/11/18 09:04:26;;;;;;;15.23;11.77;;;10.00;93.00;;;;;;5086963;28;20499;-43
2021/11/18 09:06:53;;;;;;;16.07;13.03;;;10.20;92.90;;;;;;5074975;28;20497;-44
2021/11/18 09:09:24;;;;;;;14.77;10.80;;;10.40;92.70;;;;;;5075191;28;20705;-44
2021/11/18 09:11:52;;;;;;;12.50;11.03;;;10.50;92.50;;;;;;5074668;28;20474;-44
2021/11/18 09:14:19;;;;;;;14.97;10.27;;;10.70;92.40;;;;;;5075471;28;20427;-44
2021/11/18 09:16:45;;;;;;;13.50;10.30;;;10.80;92.20;;;;;;5075759;28;20704;-44
2021/11/18 09:19:14;;;;;;;14.50;11.40;;;11.00;92.00;;;;;;5075045;28;20435;-43
2021/11/18 09:21:41;;;;;;;13.50;9.73;;;11.20;91.80;;;;;;5076182;28;20243;-44
2021/11/18 09:24:11;;;;;;;11.90;9.90;;;11.40;91.90;;;;;;5073862;28;20428;-45
2021/11/18 09:26:40;;;;;;;11.50;9.23;;;11.50;91.30;;;;;;5075596;28;20879;-43
2021/11/18 09:29:07;;;;;;;12.77;9.30;;;11.70;91.10;;;;;;5075388;28;20478;-42
2021/11/18 09:31:33;;;;;;;11.20;10.00;;;11.90;90.70;;;;;;5075078;28;20466;-42
2021/11/18 09:34:00;;;;;;;12.43;8.80;;;12.10;90.40;;;;;;5090063;28;20446;-43
2021/11/18 09:36:28;;;;;;;9.70;8.70;;;12.20;90.20;;;;;;5096657;28;20434;-43
2021/11/18 09:38:55;;;;;;;9.97;8.10;;;12.40;89.90;;;;;;5098510;28;20455;-42
2021/11/18 09:41:57;;;;;;;9.80;7.93;;;12.50;89.10;;;;;;5098999;28;20425;-43
2021/11/18 09:44:32;;;;;;;8.37;7.47;;;12.60;88.60;;;;;;5098357;28;20419;-44
2021/11/18 09:47:00;;;;;;;8.07;7.27;;;12.70;88.20;;;;;;5099918;28;20425;-43
2021/11/18 09:49:59;;;;;;;7.97;6.73;;;12.80;88.00;;;;;;5101106;28;20523;-44
2021/11/18 09:53:02;;;;;;;8.40;6.80;;;12.90;87.80;;;;;;5099323;28;21032;-43
2021/11/18 09:55:36;;;;;;;8.70;6.20;;;13.00;87.60;;;;;;5100425;28;20798;-44
2021/11/18 09:58:29;;;;;;;9.40;7.20;;;13.00;87.20;;;;;;5100059;28;20442;-42
2021/11/18 10:01:27;;;;;;;10.43;7.07;;;13.20;87.20;;;;;;5100079;28;20686;-44
2021/11/18 10:04:28;;;;;;;7.50;6.33;;;13.30;86.90;;;;;;5026840;28;20427;-45
2021/11/18 10:06:56;;;;;;;9.40;6.83;;;13.50;86.70;;;;;;5006958;28;20439;-43
2021/11/18 10:10:06;;;;;;;8.30;6.53;;;13.70;86.30;;;;;;5078548;28;20816;-43
2021/11/18 10:12:43;;;;;;;7.27;5.77;;;13.80;85.80;;;;;;5079897;28;20729;-43
2021/11/18 10:15:12;;;;;;;9.60;6.00;;;14.10;85.40;;;;;;5078793;28;20480;-45
2021/11/18 10:17:52;;;;;;;10.40;5.70;;;14.40;85.10;;;;;;5078886;28;20424;-43
2021/11/18 10:20:19;;;;;;;9.23;6.17;;;14.80;84.50;;;;;;5078028;28;20406;-46
2021/11/18 10:22:48;;;;;;;7.97;6.00;;;15.10;83.60;;;;;;5078857;28;20454;-45
2021/11/18 10:25:26;;;;;;;8.10;5.03;;;15.60;82.90;;;;;;5076750;28;20486;-43
2021/11/18 10:28:01;;;;;;;6.33;5.20;;;16.30;81.90;;;;;;5076546;28;20896;-43
2021/11/18 10:30:48;;;;;;;5.40;4.60;;;16.80;80.20;;;;;;5078036;28;20468;-43
2021/11/18 10:33:19;;;;;;;5.27;4.77;;;17.20;78.60;;;;;;5088896;28;20490;-45
2021/11/18 10:36:14;;;;;;;5.23;4.30;;;17.30;77.00;;;;;;5099370;28;20870;-44
2021/11/18 10:38:43;;;;;;;6.40;5.20;;;17.20;75.80;;;;;;5097467;28;20443;-45
2021/11/18 10:41:15;;;;;;;6.73;5.30;;;17.10;74.80;;;;;;5099247;28;20417;-43
2021/11/18 10:43:42;;;;;;;6.97;6.30;;;17.10;74.40;;;;;;5099472;28;20725;-43
2021/11/18 10:46:19;;;;;;;7.00;6.30;;;17.00;74.10;;;;;;5097911;28;20401;-44
2021/11/18 10:48:56;;;;;;;7.00;6.30;;;16.90;73.90;;;;;;5098222;28;20422;-42
2021/11/18 10:51:41;;;;;;;6.10;5.50;;;16.70;73.80;;;;;;5098259;28;20541;-44
2021/11/18 10:54:11;;;;;;;6.00;5.50;;;16.70;73.40;;;;;;5098271;28;20428;-43
2021/11/18 10:56:39;;;;;;;6.07;4.97;;;16.60;73.00;;;;;;5097141;28;20405;-44
2021/11/18 10:59:12;;;;;;;5.50;5.00;;;16.50;72.80;;;;;;5097883;28;20864;-43
2021/11/18 11:01:43;;;;;;;5.43;4.60;;;16.30;72.60;;;;;;5096360;28;20642;-41
2021/11/18 11:04:11;;;;;;;6.40;4.40;;;16.20;72.10;;;;;;5092874;28;20527;-43
2021/11/18 11:06:46;;;;;;;5.40;4.33;;;15.90;72.10;;;;;;5095876;28;20403;-42
2021/11/18 11:09:29;;;;;;;5.60;3.83;;;15.70;72.60;;;;;;5095037;28;20429;-43
2021/11/18 11:12:11;;;;;;;3.50;3.20;;;15.60;72.70;;;;;;5093946;28;20527;-43
2021/11/18 11:15:14;;;;;;;3.50;3.20;;;15.50;71.70;;;;;;5095674;28;20410;-44
2021/11/18 11:17:58;;;;;;;2.80;2.53;;;15.40;72.00;;;;;;5094852;28;20579;-43
2021/11/18 11:20:36;;;;;;;3.03;2.73;;;15.40;72.70;;;;;;5095320;28;20413;-44
2021/11/18 11:23:08;;;;;;;3.10;2.53;;;15.30;72.80;;;;;;5095981;28;20445;-43
2021/11/18 11:25:45;;;;;;;3.00;2.70;;;15.30;72.50;;;;;;5097149;28;20410;-45
2021/11/18 11:28:14;;;;;;;2.90;2.60;;;15.30;72.30;;;;;;5096970;28;20839;-44
2021/11/18 11:31:05;;;;;;;4.43;2.83;;;15.40;72.30;;;;;;5095655;28;20785;-43
2021/11/18 11:33:39;;;;;;;3.73;3.30;;;15.40;72.00;;;;;;5097083;28;20522;-45
2021/11/18 11:36:12;;;;;;;3.77;3.40;;;15.50;72.00;;;;;;5097495;28;20414;-43
2021/11/18 11:38:43;;;;;;;2.60;2.40;;;15.40;71.60;;;;;;5096239;28;20530;-43
2021/11/18 11:41:11;;;;;;;3.70;2.30;;;15.40;71.20;;;;;;5096908;28;20415;-44
2021/11/18 11:43:56;;;;;;;2.67;2.47;;;15.30;70.40;;;;;;5094661;28;20848;-43
2021/11/18 11:46:59;;;;;;;3.20;2.37;;;15.30;70.30;;;;;;5095458;28;20866;-44
2021/11/18 11:49:37;;;;;;;2.60;2.20;;;15.30;70.20;;;;;;5097330;28;20833;-43
2021/11/18 11:52:15;;;;;;;2.57;2.33;;;15.20;70.20;;;;;;5097094;28;20556;-43
2021/11/18 11:54:55;;;;;;;2.13;1.93;;;15.10;69.90;;;;;;5097094;28;20425;-42
2021/11/18 11:57:43;;;;;;;3.80;3.50;;;15.10;70.00;;;;;;5096311;28;20411;-45
2021/11/18 12:00:33;;;;;;;2.70;2.10;;;15.00;70.10;;;;;;5096859;28;20432;-45
2021/11/18 12:03:14;;;;;;;3.20;2.63;;;14.90;70.40;;;;;;5095062;28;20473;-45
2021/11/18 12:06:05;;;;;;;4.80;3.07;;;14.80;70.70;;;;;;5096657;28;20827;-45
2021/11/18 12:08:48;;;;;;;3.03;2.70;;;14.70;70.80;;;;;;5095759;28;20882;-41
2021/11/18 12:11:57;;;;;;;4.20;3.23;;;14.60;71.10;;;;;;5095886;28;21142;-42
2021/11/18 12:14:35;;;;;;;4.07;3.00;;;14.60;71.70;;;;;;4998448;28;20468;-42
2021/11/18 12:17:22;;;;;;;6.33;3.40;;;14.50;72.00;;;;;;5015746;28;20497;-45
2021/11/18 12:20:12;;;;;;;3.90;3.20;;;14.40;72.20;;;;;;5072688;28;20568;-43
2021/11/18 12:22:41;;;;;;;3.33;3.03;;;14.30;72.50;;;;;;5084599;28;20841;-44
2021/11/18 12:25:22;;;;;;;4.40;3.47;;;14.30;72.80;;;;;;5095360;28;20899;-44
2021/11/18 12:28:13;;;;;;;3.63;2.73;;;14.20;73.00;;;;;;5094881;28;20470;-43
2021/11/18 12:31:02;;;;;;;3.30;3.00;;;14.20;73.10;;;;;;5096010;28;20458;-43
2021/11/18 12:33:27;;;;;;;2.97;2.50;;;14.10;73.00;;;;;;5094860;28;20436;-43
2021/11/18 12:36:07;;;;;;;2.90;2.50;;;14.00;72.90;;;;;;5096295;28;20407;-44
2021/11/18 12:38:44;;;;;;;2.70;2.50;;;13.90;72.80;;;;;;5095584;28;20257;-43
2021/11/18 12:41:42;;;;;;;5.33;3.13;;;13.90;72.70;;;;;;5096024;28;20455;-45
2021/11/18 12:44:35;;;;;;;2.60;2.40;;;13.80;72.90;;;;;;5095242;28;20483;-45
2021/11/18 12:47:29;;;;;;;3.00;2.40;;;13.70;73.00;;;;;;5094764;28;20412;-44
2021/11/18 12:50:11;;;;;;;2.67;2.47;;;13.70;73.20;;;;;;5096697;28;20455;-43
2021/11/18 12:52:41;;;;;;;3.40;2.30;;;13.60;73.20;;;;;;5096590;28;20445;-43
2021/11/18 12:55:15;;;;;;;3.80;2.60;;;13.60;73.40;;;;;;5093742;28;20509;-43
2021/11/18 12:57:44;;;;;;;3.47;2.17;;;13.60;73.50;;;;;;5095921;28;20711;-44
2021/11/18 13:00:35;;;;;;;2.90;2.63;;;13.50;73.60;;;;;;5096190;28;20391;-45
2021/11/18 13:03:05;;;;;;;3.40;3.10;;;13.40;73.30;;;;;;5093709;28;20883;-44
2021/11/18 13:05:30;;;;;;;5.73;3.50;;;13.40;73.40;;;;;;5093401;28;20399;-45
2021/11/18 13:07:57;;;;;;;5.37;3.63;;;13.40;73.70;;;;;;5096260;28;20430;-45
2021/11/18 13:10:23;;;;;;;3.40;3.10;;;13.30;73.90;;;;;;5077819;28;20550;-44
2021/11/18 13:13:03;;;;;;;3.60;3.00;;;13.40;74.10;;;;;;5096579;28;20734;-44